Millennium — 9HJF9 — position and weather

sailwx.info

Track history (hours):
 
Tides and Currents Weather Stations Pressure Air Temp Water Temp Dewpoint Dewpoint Depression Visibility Wind Speed Wind Dir Waves Ship Positions

Millennium

Last reported at 2018-May-26 09:30 UTC. Time now 2018-May-26 09:57 UTC.
Position N 50°03' W 125°14'.

Length 294 m; draft 8.3 m.

Type: Passenger vessel. MMSI: 249055000.

Date/timePositionNaut miles runAvg speedWind from/ knotsBaromVisibWave heightAir tempDewpointWater temp
2018-May-26 09:30N 50°03' W 125°14'612.1
2018-May-26 09:00N 49°57' W 125°09'612.2
2018-May-26 08:30N 49°53' W 125°02'612.4
2018-May-26 08:01N 49°49' W 124°55'510.9
2018-May-26 07:30N 49°45' W 124°49'510.6
2018-May-26 07:00N 49°41' W 124°43'510.8
2018-May-26 06:31N 49°37' W 124°38'1110.8
2018-May-26 05:29N 49°29' W 124°28'510.8
2018-May-26 05:00N 49°26' W 124°21'7490.4
2018-May-26 05:00N 49°30' W 124°30'1324.7 200 / 121016.0 15.5 9.316.0
2018-May-26 04:28N 49°24' W 124°12'710.9
2018-May-26 03:48N 49°22' W 124°02'310.6
2018-May-26 03:29N 49°21' W 123°57'1010.7
2018-May-26 02:33N 49°19' W 123°42'011.1
2018-May-26 02:30N 49°19' W 123°41'910.7
2018-May-26 01:41N 49°19' W 123°27'3 9.5
2018-May-26 01:22N 49°19' W 123°23'4 9.4
2018-May-26 01:00N 49°19' W 123°17'5 9.5
2018-May-26 00:30N 49°19' W 123°10'3 6.5
2018-May-26 00:00N 49°18' W 123°06'1 1.2
2018-May-25 23:29N 49°17' W 123°07'0 0.0
2018-May-25 22:58N 49°17' W 123°07'0 0.0
2018-May-25 22:25N 49°17' W 123°07'0 0.0
2018-May-25 21:58N 49°17' W 123°07'0 0.0
2018-May-25 21:28N 49°17' W 123°07'0 0.0
2018-May-25 21:00N 49°17' W 123°07'0 0.0
2018-May-25 20:30N 49°17' W 123°07'0 0.0
2018-May-25 20:00N 49°17' W 123°07'0 0.0
2018-May-25 19:27N 49°17' W 123°07'511.7
2018-May-25 19:00N 49°12' W 123°06'519114.2 090 / 71017.0 18.4 8.812.0
2018-May-25 18:59N 49°17' W 123°07'0 0.0
2018-May-25 18:29N 49°17' W 123°07'0 0.0
2018-May-25 18:00N 49°17' W 123°07'0 0.0
2018-May-25 17:29N 49°17' W 123°07'0 0.0
2018-May-25 16:59N 49°17' W 123°07'0 0.0
2018-May-25 16:25N 49°17' W 123°07'0 0.0
2018-May-25 15:55N 49°17' W 123°07'0 0.0
2018-May-25 15:28N 49°17' W 123°07'0 0.0
2018-May-25 14:58N 49°17' W 123°07'0 0.0
2018-May-25 14:28N 49°17' W 123°07'0 0.0
2018-May-25 14:00N 49°17' W 123°07'0 0.4
2018-May-25 13:30N 49°17' W 123°06'4 7.7
2018-May-25 13:00N 49°19' W 123°12'612.0
2018-May-25 12:28N 49°18' W 123°22'1112.1
2018-May-25 11:32N 49°19' W 123°39'612.1
2018-May-25 11:03N 49°19' W 123°48'212.4
2018-May-25 10:55N 49°20' W 123°51'612.0
2018-May-25 10:24N 49°21' W 123°59'4 9.9
2018-May-25 09:59N 49°23' W 124°06'5 9.9
2018-May-25 09:27N 49°24' W 124°13'4 9.8
2018-May-25 09:00N 49°25' W 124°20'5 9.8
2018-May-25 08:29N 49°28' W 124°27'510.2
2018-May-25 07:57N 49°32' W 124°32'510.6
2018-May-25 07:29N 49°35' W 124°38'510.5
2018-May-25 07:00N 49°39' W 124°43'510.7
2018-May-25 06:31N 49°43' W 124°48'510.4
2018-May-25 06:00N 49°47' W 124°53'510.2
2018-May-25 05:30N 49°51' W 124°59'510.1
2018-May-25 05:00N 49°54' W 125°04'610.6
2018-May-25 04:28N 49°58' W 125°10'612.8
2018-May-25 04:00N 50°04' W 125°15'511.0
2018-May-25 03:30N 50°07' W 125°21'713.4
2018-May-25 03:00N 50°14' W 125°23'9555.5
2018-May-25 03:00N 50°06' W 125°18'4915.8 310 / 121017.0 15.4 8.111.0
2018-May-24 23:55N 50°30' W 126°24'817.2
2018-May-24 23:27N 50°31' W 126°36'713.5
2018-May-24 22:56N 50°36' W 126°44'716.2
2018-May-24 22:30N 50°41' W 126°52'917.3
2018-May-24 21:59N 50°44' W 127°05'817.3
2018-May-24 21:30N 50°47' W 127°17'817.2
2018-May-24 21:00N 50°51' W 127°30'816.8
2018-May-24 20:30N 50°55' W 127°41'816.8
2018-May-24 20:00N 51°00' W 127°52'816.8
2018-May-24 19:30N 51°06' W 128°02'816.8
2018-May-24 19:00N 51°11' W 128°12'817.0
2018-May-24 18:30N 51°17' W 128°21'917.2
2018-May-24 18:00N 51°23' W 128°32'917.1
2018-May-24 17:30N 51°29' W 128°41'917.5
2018-May-24 17:00N 51°36' W 128°50'917.5
2018-May-24 16:30N 51°42' W 128°60'917.6
2018-May-24 16:00N 51°49' W 129°09'917.5
2018-May-24 15:30N 51°55' W 129°19'1 2.8
2018-May-24 15:00N 51°54' W 129°18'5819.4 310 / 101018.0 11.8 7.211.0
2018-May-24 12:00N 52°42' W 130°12'5718.9 180 / 131016.0 2.2 11.011.012.0
2018-May-24 08:58N 53°34' W 130°50'818.1
2018-May-24 08:30N 53°42' W 130°54'918.3
2018-May-24 08:00N 53°51' W 130°58'918.0
2018-May-24 07:30N 54°00' W 131°00'918.1
2018-May-24 07:00N 54°09' W 130°58'9594.7
2018-May-24 07:00N 54°00' W 131°00'1735.7 280 / 181014.0 9.9 6.410.0
2018-May-24 06:30N 54°17' W 130°57'815.0
2018-May-24 06:00N 54°24' W 131°05'919.0
2018-May-24 05:30N 54°31' W 131°14'917.8
2018-May-24 05:00N 54°40' W 131°15'918.3
2018-May-24 04:30N 54°49' W 131°09'33 6.0
2018-May-23 23:00N 55°18' W 131°36'49 4.5 120 / 81012.0 10.7 9.4 9.0
2018-May-23 12:00N 55°54' W 132°36'5711.5 300 / 161014.0 1.1 9.0 9.0 9.0
2018-May-23 07:00N 56°00' W 134°18'10317.2 190 / 31014.0 8.6 6.6 8.0
2018-May-23 01:00N 57°42' W 134°48'31 3.8 170 / 81003.0 2.2 9.0 9.0
2018-May-22 17:00N 58°06' W 135°24'3 1.1 090 / 31010.0 9.2 7.9 7.0
2018-May-22 13:46N 58°09' W 135°28'310.6
2018-May-22 13:30N 58°09' W 135°23'12 8.1
2018-May-22 12:00N 58°12' W 135°00'48 9.7 150 / 61008.0 2.2 10.0 8.1 9.0
2018-May-22 07:00N 59°00' W 135°12'24 1.9 190 / 211008.0 9.8 8.110.0
2018-May-21 18:00N 59°24' W 135°18'84 7.0 230 / 91006.0 10.6 8.611.0
2018-May-21 06:00N 58°06' W 134°18'7 0.7 090 / 151010.0 10.5 8.2 9.0
2018-May-20 20:00N 58°12' W 134°24'7 1.4 220 / 111012.0 10.7 8.1 8.0
2018-May-20 15:00N 58°06' W 134°18'32 9.7 090 / 51011.0 2.2 11.0 9.2
2018-May-20 11:43N 58°09' W 135°18'417.1
2018-May-20 11:30N 58°11' W 135°24'917.6
2018-May-20 11:00N 58°16' W 135°38'918.0
2018-May-20 10:30N 58°19' W 135°54'918.6
2018-May-20 10:00N 58°19' W 136°12'4113.7
2018-May-20 07:00N 58°18' W 137°30'14910.6 250 / 21011.0 8.4 5.4 9.0
2018-May-19 17:00N 59°30' W 141°42'6115.2 090 / 171017.0 7.6 6.7 8.0
2018-May-19 13:00N 59°30' W 143°42'3736.5 160 / 251013.0 5.4 8.0 8.0
2018-May-19 12:00N 59°30' W 144°54'11018.3 160 / 251013.0 5.4 8.0 8.0
2018-May-19 06:00N 59°42' W 148°30'36 3.3 080 / 441008.0 7.6 6.6 9.0
2018-May-18 19:00N 60°06' W 149°24'87 6.7 030 / 21015.0 7.0 4.9 6.0
2018-May-18 06:00N 59°36' W 146°42'4615.3 100 / 81022.0 7.0 6.4 7.0
2018-May-18 03:00N 59°30' W 145°12'15819.8 090 / 21021.0 2.2 10.010.0
2018-May-17 19:00N 59°36' W 140°00'13611.4 280 / 131024.0 8.3 4.8 8.0
2018-May-17 07:00N 58°06' W 136°42'2030.7 330 / 171024.0 7.4 4.9 7.0
2018-May-17 06:21N 58°19' W 136°13'516.1
2018-May-17 06:00N 58°20' W 136°03'816.1
2018-May-17 05:30N 58°19' W 135°48'918.4
2018-May-17 05:00N 58°15' W 135°32'52 3.0
2018-May-16 12:00N 59°06' W 135°12'   010 / 121020.0 5.4 6.0 6.0 9.9
Track history (hours):
 
Tides and Currents Weather Stations Pressure Air Temp Water Temp Dewpoint Dewpoint Depression Visibility Wind Speed Wind Dir Waves Ship Positions

Millennium

Last reported at 2018-May-26 09:30 UTC. Time now 2018-May-26 09:57 UTC.
Position N 50°03' W 125°14'.

Length 294 m; draft 8.3 m.

Type: Passenger vessel. MMSI: 249055000.

Date/timePositionNaut miles runAvg speedWind from/ knotsBaromVisibWave heightAir tempDewpointWater temp
2018-May-26 09:30N 50°03' W 125°14'612.1
2018-May-26 09:00N 49°57' W 125°09'612.2
2018-May-26 08:30N 49°53' W 125°02'612.4
2018-May-26 08:01N 49°49' W 124°55'510.9
2018-May-26 07:30N 49°45' W 124°49'510.6
2018-May-26 07:00N 49°41' W 124°43'510.8
2018-May-26 06:31N 49°37' W 124°38'1110.8
2018-May-26 05:29N 49°29' W 124°28'510.8
2018-May-26 05:00N 49°26' W 124°21'7490.4
2018-May-26 05:00N 49°30' W 124°30'1324.7 200 / 121016.0 15.5 9.316.0
2018-May-26 04:28N 49°24' W 124°12'710.9
2018-May-26 03:48N 49°22' W 124°02'310.6
2018-May-26 03:29N 49°21' W 123°57'1010.7
2018-May-26 02:33N 49°19' W 123°42'011.1
2018-May-26 02:30N 49°19' W 123°41'910.7
2018-May-26 01:41N 49°19' W 123°27'3 9.5
2018-May-26 01:22N 49°19' W 123°23'4 9.4
2018-May-26 01:00N 49°19' W 123°17'5 9.5
2018-May-26 00:30N 49°19' W 123°10'3 6.5
2018-May-26 00:00N 49°18' W 123°06'1 1.2
2018-May-25 23:29N 49°17' W 123°07'0 0.0
2018-May-25 22:58N 49°17' W 123°07'0 0.0
2018-May-25 22:25N 49°17' W 123°07'0 0.0
2018-May-25 21:58N 49°17' W 123°07'0 0.0
2018-May-25 21:28N 49°17' W 123°07'0 0.0
2018-May-25 21:00N 49°17' W 123°07'0 0.0
2018-May-25 20:30N 49°17' W 123°07'0 0.0
2018-May-25 20:00N 49°17' W 123°07'0 0.0
2018-May-25 19:27N 49°17' W 123°07'511.7
2018-May-25 19:00N 49°12' W 123°06'519114.2 090 / 71017.0 18.4 8.812.0
2018-May-25 18:59N 49°17' W 123°07'0 0.0
2018-May-25 18:29N 49°17' W 123°07'0 0.0
2018-May-25 18:00N 49°17' W 123°07'0 0.0
2018-May-25 17:29N 49°17' W 123°07'0 0.0
2018-May-25 16:59N 49°17' W 123°07'0 0.0
2018-May-25 16:25N 49°17' W 123°07'0 0.0
2018-May-25 15:55N 49°17' W 123°07'0 0.0
2018-May-25 15:28N 49°17' W 123°07'0 0.0
2018-May-25 14:58N 49°17' W 123°07'0 0.0
2018-May-25 14:28N 49°17' W 123°07'0 0.0
2018-May-25 14:00N 49°17' W 123°07'0 0.4
2018-May-25 13:30N 49°17' W 123°06'4 7.7
2018-May-25 13:00N 49°19' W 123°12'612.0
2018-May-25 12:28N 49°18' W 123°22'1112.1
2018-May-25 11:32N 49°19' W 123°39'612.1
2018-May-25 11:03N 49°19' W 123°48'212.4
2018-May-25 10:55N 49°20' W 123°51'612.0
2018-May-25 10:24N 49°21' W 123°59'4 9.9
2018-May-25 09:59N 49°23' W 124°06'5 9.9
2018-May-25 09:27N 49°24' W 124°13'4 9.8
2018-May-25 09:00N 49°25' W 124°20'5 9.8
2018-May-25 08:29N 49°28' W 124°27'510.2
2018-May-25 07:57N 49°32' W 124°32'510.6
2018-May-25 07:29N 49°35' W 124°38'510.5
2018-May-25 07:00N 49°39' W 124°43'510.7
2018-May-25 06:31N 49°43' W 124°48'510.4
2018-May-25 06:00N 49°47' W 124°53'510.2
2018-May-25 05:30N 49°51' W 124°59'510.1
2018-May-25 05:00N 49°54' W 125°04'610.6
2018-May-25 04:28N 49°58' W 125°10'612.8
2018-May-25 04:00N 50°04' W 125°15'511.0
2018-May-25 03:30N 50°07' W 125°21'713.4
2018-May-25 03:00N 50°14' W 125°23'9555.5
2018-May-25 03:00N 50°06' W 125°18'4915.8 310 / 121017.0 15.4 8.111.0
2018-May-24 23:55N 50°30' W 126°24'817.2
2018-May-24 23:27N 50°31' W 126°36'713.5
2018-May-24 22:56N 50°36' W 126°44'716.2
2018-May-24 22:30N 50°41' W 126°52'917.3
2018-May-24 21:59N 50°44' W 127°05'817.3
2018-May-24 21:30N 50°47' W 127°17'817.2
2018-May-24 21:00N 50°51' W 127°30'816.8
2018-May-24 20:30N 50°55' W 127°41'816.8
2018-May-24 20:00N 51°00' W 127°52'816.8
2018-May-24 19:30N 51°06' W 128°02'816.8
2018-May-24 19:00N 51°11' W 128°12'817.0
2018-May-24 18:30N 51°17' W 128°21'917.2
2018-May-24 18:00N 51°23' W 128°32'917.1
2018-May-24 17:30N 51°29' W 128°41'917.5
2018-May-24 17:00N 51°36' W 128°50'917.5
2018-May-24 16:30N 51°42' W 128°60'917.6
2018-May-24 16:00N 51°49' W 129°09'917.5
2018-May-24 15:30N 51°55' W 129°19'1 2.8
2018-May-24 15:00N 51°54' W 129°18'5819.4 310 / 101018.0 11.8 7.211.0
2018-May-24 12:00N 52°42' W 130°12'5718.9 180 / 131016.0 2.2 11.011.012.0
2018-May-24 08:58N 53°34' W 130°50'818.1
2018-May-24 08:30N 53°42' W 130°54'918.3
2018-May-24 08:00N 53°51' W 130°58'918.0
2018-May-24 07:30N 54°00' W 131°00'918.1
2018-May-24 07:00N 54°09' W 130°58'9594.7
2018-May-24 07:00N 54°00' W 131°00'1735.7 280 / 181014.0 9.9 6.410.0
2018-May-24 06:30N 54°17' W 130°57'815.0
2018-May-24 06:00N 54°24' W 131°05'919.0
2018-May-24 05:30N 54°31' W 131°14'917.8
2018-May-24 05:00N 54°40' W 131°15'918.3
2018-May-24 04:30N 54°49' W 131°09'33 6.0
2018-May-23 23:00N 55°18' W 131°36'49 4.5 120 / 81012.0 10.7 9.4 9.0
2018-May-23 12:00N 55°54' W 132°36'5711.5 300 / 161014.0 1.1 9.0 9.0 9.0
2018-May-23 07:00N 56°00' W 134°18'10317.2 190 / 31014.0 8.6 6.6 8.0
2018-May-23 01:00N 57°42' W 134°48'31 3.8 170 / 81003.0 2.2 9.0 9.0
2018-May-22 17:00N 58°06' W 135°24'3 1.1 090 / 31010.0 9.2 7.9 7.0
2018-May-22 13:46N 58°09' W 135°28'310.6
2018-May-22 13:30N 58°09' W 135°23'12 8.1
2018-May-22 12:00N 58°12' W 135°00'48 9.7 150 / 61008.0 2.2 10.0 8.1 9.0
2018-May-22 07:00N 59°00' W 135°12'24 1.9 190 / 211008.0 9.8 8.110.0
2018-May-21 18:00N 59°24' W 135°18'84 7.0 230 / 91006.0 10.6 8.611.0
2018-May-21 06:00N 58°06' W 134°18'7 0.7 090 / 151010.0 10.5 8.2 9.0
2018-May-20 20:00N 58°12' W 134°24'7 1.4 220 / 111012.0 10.7 8.1 8.0
2018-May-20 15:00N 58°06' W 134°18'32 9.7 090 / 51011.0 2.2 11.0 9.2
2018-May-20 11:43N 58°09' W 135°18'417.1
2018-May-20 11:30N 58°11' W 135°24'917.6
2018-May-20 11:00N 58°16' W 135°38'918.0
2018-May-20 10:30N 58°19' W 135°54'918.6
2018-May-20 10:00N 58°19' W 136°12'4113.7
2018-May-20 07:00N 58°18' W 137°30'14910.6 250 / 21011.0 8.4 5.4 9.0
2018-May-19 17:00N 59°30' W 141°42'6115.2 090 / 171017.0 7.6 6.7 8.0
2018-May-19 13:00N 59°30' W 143°42'3736.5 160 / 251013.0 5.4 8.0 8.0
2018-May-19 12:00N 59°30' W 144°54'11018.3 160 / 251013.0 5.4 8.0 8.0
2018-May-19 06:00N 59°42' W 148°30'36 3.3 080 / 441008.0 7.6 6.6 9.0
2018-May-18 19:00N 60°06' W 149°24'87 6.7 030 / 21015.0 7.0 4.9 6.0
2018-May-18 06:00N 59°36' W 146°42'4615.3 100 / 81022.0 7.0 6.4 7.0
2018-May-18 03:00N 59°30' W 145°12'15819.8 090 / 21021.0 2.2 10.010.0
2018-May-17 19:00N 59°36' W 140°00'13611.4 280 / 131024.0 8.3 4.8 8.0
2018-May-17 07:00N 58°06' W 136°42'2030.7 330 / 171024.0 7.4 4.9 7.0
2018-May-17 06:21N 58°19' W 136°13'516.1
2018-May-17 06:00N 58°20' W 136°03'816.1
2018-May-17 05:30N 58°19' W 135°48'918.4
2018-May-17 05:00N 58°15' W 135°32'52 3.0
2018-May-16 12:00N 59°06' W 135°12'   010 / 121020.0 5.4 6.0 6.0 9.9

Dump ship's entire track history